sensor_id;sensor_type;location;lat;lon;timestamp;temperature;humidity
4107;DHT22;21906;50.812;7.132;2023-09-07T00:02:20;20.30;71.70
4107;DHT22;21906;50.812;7.132;2023-09-07T00:04:46;20.30;71.70
4107;DHT22;21906;50.812;7.132;2023-09-07T00:07:11;20.30;71.70
4107;DHT22;21906;50.812;7.132;2023-09-07T00:09:37;20.30;71.60
4107;DHT22;21906;50.812;7.132;2023-09-07T00:12:03;20.20;71.60
4107;DHT22;21906;50.812;7.132;2023-09-07T00:14:29;20.30;71.60
4107;DHT22;21906;50.812;7.132;2023-09-07T00:16:54;20.30;71.50
4107;DHT22;21906;50.812;7.132;2023-09-07T00:19:20;20.20;71.70
4107;DHT22;21906;50.812;7.132;2023-09-07T00:21:46;20.20;71.60
4107;DHT22;21906;50.812;7.132;2023-09-07T00:24:11;20.20;71.50
4107;DHT22;21906;50.812;7.132;2023-09-07T00:26:37;20.10;71.50
4107;DHT22;21906;50.812;7.132;2023-09-07T00:29:02;20.10;71.50
4107;DHT22;21906;50.812;7.132;2023-09-07T00:31:28;20.00;71.60
4107;DHT22;21906;50.812;7.132;2023-09-07T00:33:54;20.00;71.60
4107;DHT22;21906;50.812;7.132;2023-09-07T00:36:19;20.00;71.60
4107;DHT22;21906;50.812;7.132;2023-09-07T00:38:45;19.90;71.70
4107;DHT22;21906;50.812;7.132;2023-09-07T00:41:12;19.90;71.70
4107;DHT22;21906;50.812;7.132;2023-09-07T00:43:38;19.90;71.80
4107;DHT22;21906;50.812;7.132;2023-09-07T00:46:06;19.80;71.80
4107;DHT22;21906;50.812;7.132;2023-09-07T00:48:32;19.80;71.90
4107;DHT22;21906;50.812;7.132;2023-09-07T00:50:59;19.70;71.90
4107;DHT22;21906;50.812;7.132;2023-09-07T00:53:26;19.70;71.90
4107;DHT22;21906;50.812;7.132;2023-09-07T00:55:53;19.70;71.90
4107;DHT22;21906;50.812;7.132;2023-09-07T00:58:20;19.70;72.00
4107;DHT22;21906;50.812;7.132;2023-09-07T01:00:46;19.80;71.90
4107;DHT22;21906;50.812;7.132;2023-09-07T01:03:12;19.80;71.80
4107;DHT22;21906;50.812;7.132;2023-09-07T01:08:18;19.90;71.60
4107;DHT22;21906;50.812;7.132;2023-09-07T01:10:45;19.80;71.30
4107;DHT22;21906;50.812;7.132;2023-09-07T01:13:11;19.90;71.30
4107;DHT22;21906;50.812;7.132;2023-09-07T01:15:37;19.90;71.20
4107;DHT22;21906;50.812;7.132;2023-09-07T01:18:04;19.90;71.10
4107;DHT22;21906;50.812;7.132;2023-09-07T01:20:31;19.80;71.10
4107;DHT22;21906;50.812;7.132;2023-09-07T01:22:57;19.80;71.00
4107;DHT22;21906;50.812;7.132;2023-09-07T01:25:23;19.80;71.20
4107;DHT22;21906;50.812;7.132;2023-09-07T01:27:49;19.80;71.10
4107;DHT22;21906;50.812;7.132;2023-09-07T01:30:16;19.80;71.00
4107;DHT22;21906;50.812;7.132;2023-09-07T01:32:41;19.70;71.00
4107;DHT22;21906;50.812;7.132;2023-09-07T01:35:10;19.70;71.10
4107;DHT22;21906;50.812;7.132;2023-09-07T01:37:36;19.70;71.10
4107;DHT22;21906;50.812;7.132;2023-09-07T01:40:02;19.70;71.30
4107;DHT22;21906;50.812;7.132;2023-09-07T01:42:33;19.70;71.20
4107;DHT22;21906;50.812;7.132;2023-09-07T01:44:58;19.60;71.10
4107;DHT22;21906;50.812;7.132;2023-09-07T01:47:24;19.60;71.10
4107;DHT22;21906;50.812;7.132;2023-09-07T01:49:50;19.50;71.10
4107;DHT22;21906;50.812;7.132;2023-09-07T01:52:15;19.50;71.20
4107;DHT22;21906;50.812;7.132;2023-09-07T01:54:41;19.40;71.50
4107;DHT22;21906;50.812;7.132;2023-09-07T01:57:06;19.40;71.50
4107;DHT22;21906;50.812;7.132;2023-09-07T01:59:32;19.40;71.60
4107;DHT22;21906;50.812;7.132;2023-09-07T02:01:58;19.40;71.80
4107;DHT22;21906;50.812;7.132;2023-09-07T02:04:23;19.40;71.70
4107;DHT22;21906;50.812;7.132;2023-09-07T02:06:49;19.30;71.90
4107;DHT22;21906;50.812;7.132;2023-09-07T02:09:15;19.20;72.00
4107;DHT22;21906;50.812;7.132;2023-09-07T02:11:41;19.20;71.90
4107;DHT22;21906;50.812;7.132;2023-09-07T02:14:06;19.20;72.00
4107;DHT22;21906;50.812;7.132;2023-09-07T02:16:32;19.20;72.10
4107;DHT22;21906;50.812;7.132;2023-09-07T02:19:02;19.10;72.00
4107;DHT22;21906;50.812;7.132;2023-09-07T02:21:29;19.10;72.20
4107;DHT22;21906;50.812;7.132;2023-09-07T02:23:54;19.00;72.30
4107;DHT22;21906;50.812;7.132;2023-09-07T02:26:20;19.00;72.40
4107;DHT22;21906;50.812;7.132;2023-09-07T02:28:46;19.00;72.40
4107;DHT22;21906;50.812;7.132;2023-09-07T02:31:11;19.00;72.30
4107;DHT22;21906;50.812;7.132;2023-09-07T02:33:37;18.90;72.20
4107;DHT22;21906;50.812;7.132;2023-09-07T02:36:03;18.90;72.40
4107;DHT22;21906;50.812;7.132;2023-09-07T02:38:28;18.90;72.30
4107;DHT22;21906;50.812;7.132;2023-09-07T02:40:55;18.90;72.40
4107;DHT22;21906;50.812;7.132;2023-09-07T02:43:21;18.80;72.40
4107;DHT22;21906;50.812;7.132;2023-09-07T02:45:48;18.90;72.20
4107;DHT22;21906;50.812;7.132;2023-09-07T02:48:15;18.80;72.30
4107;DHT22;21906;50.812;7.132;2023-09-07T02:50:40;18.70;72.50
4107;DHT22;21906;50.812;7.132;2023-09-07T02:53:06;18.70;72.70
4107;DHT22;21906;50.812;7.132;2023-09-07T02:55:32;18.70;72.70
4107;DHT22;21906;50.812;7.132;2023-09-07T02:57:57;18.70;72.70
4107;DHT22;21906;50.812;7.132;2023-09-07T03:00:23;18.60;72.80
4107;DHT22;21906;50.812;7.132;2023-09-07T03:02:49;18.60;72.60
4107;DHT22;21906;50.812;7.132;2023-09-07T03:05:16;18.60;72.50
4107;DHT22;21906;50.812;7.132;2023-09-07T03:07:41;18.60;72.50
4107;DHT22;21906;50.812;7.132;2023-09-07T03:10:07;18.60;72.50
4107;DHT22;21906;50.812;7.132;2023-09-07T03:12:34;18.50;72.60
4107;DHT22;21906;50.812;7.132;2023-09-07T03:14:59;18.50;72.70
4107;DHT22;21906;50.812;7.132;2023-09-07T03:17:29;18.50;72.80
4107;DHT22;21906;50.812;7.132;2023-09-07T03:19:54;18.60;72.70
4107;DHT22;21906;50.812;7.132;2023-09-07T03:22:20;18.60;72.60
4107;DHT22;21906;50.812;7.132;2023-09-07T03:24:46;18.60;72.60
4107;DHT22;21906;50.812;7.132;2023-09-07T03:27:12;18.60;72.50
4107;DHT22;21906;50.812;7.132;2023-09-07T03:29:38;18.50;72.50
4107;DHT22;21906;50.812;7.132;2023-09-07T03:32:04;18.50;72.60
4107;DHT22;21906;50.812;7.132;2023-09-07T03:34:30;18.60;72.50
4107;DHT22;21906;50.812;7.132;2023-09-07T03:36:55;18.60;72.50
4107;DHT22;21906;50.812;7.132;2023-09-07T03:39:21;18.50;72.60
4107;DHT22;21906;50.812;7.132;2023-09-07T03:41:49;18.60;72.50
4107;DHT22;21906;50.812;7.132;2023-09-07T03:44:15;18.50;72.50
4107;DHT22;21906;50.812;7.132;2023-09-07T03:46:41;18.50;72.50
4107;DHT22;21906;50.812;7.132;2023-09-07T03:49:07;18.60;72.30
4107;DHT22;21906;50.812;7.132;2023-09-07T03:51:33;18.60;72.30
4107;DHT22;21906;50.812;7.132;2023-09-07T03:53:58;18.60;72.20
4107;DHT22;21906;50.812;7.132;2023-09-07T03:56:24;18.60;72.10
4107;DHT22;21906;50.812;7.132;2023-09-07T03:58:50;18.60;72.10
4107;DHT22;21906;50.812;7.132;2023-09-07T04:01:16;18.60;72.10
4107;DHT22;21906;50.812;7.132;2023-09-07T04:03:41;18.60;72.10
4107;DHT22;21906;50.812;7.132;2023-09-07T04:06:07;18.60;72.20
4107;DHT22;21906;50.812;7.132;2023-09-07T04:08:33;18.60;72.10
4107;DHT22;21906;50.812;7.132;2023-09-07T04:11:03;18.60;72.00
4107;DHT22;21906;50.812;7.132;2023-09-07T04:13:29;18.60;72.00
4107;DHT22;21906;50.812;7.132;2023-09-07T04:15:55;18.60;72.00
4107;DHT22;21906;50.812;7.132;2023-09-07T04:18:20;18.60;71.90
4107;DHT22;21906;50.812;7.132;2023-09-07T04:20:46;18.60;71.80
4107;DHT22;21906;50.812;7.132;2023-09-07T04:23:12;18.50;71.90
4107;DHT22;21906;50.812;7.132;2023-09-07T04:25:37;18.50;71.90
4107;DHT22;21906;50.812;7.132;2023-09-07T04:28:06;18.60;71.80
4107;DHT22;21906;50.812;7.132;2023-09-07T04:30:39;18.50;71.80
4107;DHT22;21906;50.812;7.132;2023-09-07T04:33:05;18.60;71.80
4107;DHT22;21906;50.812;7.132;2023-09-07T04:35:30;18.50;71.90
4107;DHT22;21906;50.812;7.132;2023-09-07T04:37:57;18.50;71.70
4107;DHT22;21906;50.812;7.132;2023-09-07T04:40:24;18.40;71.70
4107;DHT22;21906;50.812;7.132;2023-09-07T04:42:49;18.40;72.00
4107;DHT22;21906;50.812;7.132;2023-09-07T04:45:15;18.30;72.00
4107;DHT22;21906;50.812;7.132;2023-09-07T04:47:41;18.40;72.00
4107;DHT22;21906;50.812;7.132;2023-09-07T04:50:06;18.30;72.00
4107;DHT22;21906;50.812;7.132;2023-09-07T04:52:32;18.30;72.10
4107;DHT22;21906;50.812;7.132;2023-09-07T04:55:00;18.20;72.30
4107;DHT22;21906;50.812;7.132;2023-09-07T04:57:25;18.20;72.20
4107;DHT22;21906;50.812;7.132;2023-09-07T04:59:51;18.20;72.30
4107;DHT22;21906;50.812;7.132;2023-09-07T05:02:17;18.20;72.30
4107;DHT22;21906;50.812;7.132;2023-09-07T05:04:42;18.20;72.20
4107;DHT22;21906;50.812;7.132;2023-09-07T05:07:08;18.10;72.50
4107;DHT22;21906;50.812;7.132;2023-09-07T05:09:34;18.10;72.60
4107;DHT22;21906;50.812;7.132;2023-09-07T05:11:59;18.10;72.70
4107;DHT22;21906;50.812;7.132;2023-09-07T05:14:25;18.10;72.70
4107;DHT22;21906;50.812;7.132;2023-09-07T05:16:51;18.10;72.80
4107;DHT22;21906;50.812;7.132;2023-09-07T05:19:16;18.10;72.80
4107;DHT22;21906;50.812;7.132;2023-09-07T05:21:42;18.20;72.50
4107;DHT22;21906;50.812;7.132;2023-09-07T05:24:08;18.20;72.50
4107;DHT22;21906;50.812;7.132;2023-09-07T05:26:33;18.20;72.50
4107;DHT22;21906;50.812;7.132;2023-09-07T05:28:59;18.30;72.40
4107;DHT22;21906;50.812;7.132;2023-09-07T05:31:25;18.30;72.40
4107;DHT22;21906;50.812;7.132;2023-09-07T05:33:50;18.30;72.50
4107;DHT22;21906;50.812;7.132;2023-09-07T05:36:17;18.40;72.30
4107;DHT22;21906;50.812;7.132;2023-09-07T05:38:43;18.40;72.10
4107;DHT22;21906;50.812;7.132;2023-09-07T05:41:08;18.40;72.00
4107;DHT22;21906;50.812;7.132;2023-09-07T05:43:34;18.50;71.70
4107;DHT22;21906;50.812;7.132;2023-09-07T05:46:00;18.50;71.40
4107;DHT22;21906;50.812;7.132;2023-09-07T05:48:26;18.60;71.30
4107;DHT22;21906;50.812;7.132;2023-09-07T05:50:51;18.60;71.20
4107;DHT22;21906;50.812;7.132;2023-09-07T05:53:19;18.60;70.90
4107;DHT22;21906;50.812;7.132;2023-09-07T05:55:45;18.70;70.90
4107;DHT22;21906;50.812;7.132;2023-09-07T05:58:12;18.70;71.20
4107;DHT22;21906;50.812;7.132;2023-09-07T06:00:38;18.70;71.00
4107;DHT22;21906;50.812;7.132;2023-09-07T06:03:08;18.70;70.70
4107;DHT22;21906;50.812;7.132;2023-09-07T06:05:35;18.70;71.00
4107;DHT22;21906;50.812;7.132;2023-09-07T06:08:02;18.70;71.00
4107;DHT22;21906;50.812;7.132;2023-09-07T06:10:28;18.80;70.90
4107;DHT22;21906;50.812;7.132;2023-09-07T06:12:55;18.90;70.70
4107;DHT22;21906;50.812;7.132;2023-09-07T06:15:21;18.90;70.70
4107;DHT22;21906;50.812;7.132;2023-09-07T06:17:46;18.90;70.60
4107;DHT22;21906;50.812;7.132;2023-09-07T06:20:12;19.00;70.30
4107;DHT22;21906;50.812;7.132;2023-09-07T06:22:38;19.00;70.20
4107;DHT22;21906;50.812;7.132;2023-09-07T06:25:04;19.10;70.30
4107;DHT22;21906;50.812;7.132;2023-09-07T06:27:30;19.20;70.20
4107;DHT22;21906;50.812;7.132;2023-09-07T06:29:55;19.20;70.20
4107;DHT22;21906;50.812;7.132;2023-09-07T06:32:21;19.30;70.20
4107;DHT22;21906;50.812;7.132;2023-09-07T06:34:47;19.40;70.10
4107;DHT22;21906;50.812;7.132;2023-09-07T06:37:12;19.40;70.10
4107;DHT22;21906;50.812;7.132;2023-09-07T06:39:38;19.40;70.00
4107;DHT22;21906;50.812;7.132;2023-09-07T06:42:04;19.50;70.00
4107;DHT22;21906;50.812;7.132;2023-09-07T06:44:30;19.40;69.90
4107;DHT22;21906;50.812;7.132;2023-09-07T06:46:56;19.50;69.90
4107;DHT22;21906;50.812;7.132;2023-09-07T06:49:22;19.50;70.20
4107;DHT22;21906;50.812;7.132;2023-09-07T06:51:48;19.60;69.90
4107;DHT22;21906;50.812;7.132;2023-09-07T06:54:13;19.60;69.60
4107;DHT22;21906;50.812;7.132;2023-09-07T06:56:39;19.70;69.30
4107;DHT22;21906;50.812;7.132;2023-09-07T06:59:05;19.80;69.10
4107;DHT22;21906;50.812;7.132;2023-09-07T07:01:30;19.80;68.90
4107;DHT22;21906;50.812;7.132;2023-09-07T07:03:56;19.90;69.00
4107;DHT22;21906;50.812;7.132;2023-09-07T07:06:23;19.90;68.90
4107;DHT22;21906;50.812;7.132;2023-09-07T07:08:48;20.00;68.90
4107;DHT22;21906;50.812;7.132;2023-09-07T07:11:14;20.00;68.60
4107;DHT22;21906;50.812;7.132;2023-09-07T07:13:40;20.10;68.80
4107;DHT22;21906;50.812;7.132;2023-09-07T07:16:06;20.20;68.60
4107;DHT22;21906;50.812;7.132;2023-09-07T07:18:31;20.20;68.40
4107;DHT22;21906;50.812;7.132;2023-09-07T07:20:57;20.30;68.20
4107;DHT22;21906;50.812;7.132;2023-09-07T07:23:23;20.40;68.10
4107;DHT22;21906;50.812;7.132;2023-09-07T07:25:49;20.50;68.00
4107;DHT22;21906;50.812;7.132;2023-09-07T07:28:15;20.50;67.70
4107;DHT22;21906;50.812;7.132;2023-09-07T07:30:40;20.60;67.40
4107;DHT22;21906;50.812;7.132;2023-09-07T07:33:07;20.70;67.10
4107;DHT22;21906;50.812;7.132;2023-09-07T07:35:34;20.80;67.00
4107;DHT22;21906;50.812;7.132;2023-09-07T07:38:04;20.80;66.50
4107;DHT22;21906;50.812;7.132;2023-09-07T07:40:30;20.90;66.50
4107;DHT22;21906;50.812;7.132;2023-09-07T07:42:56;21.00;66.10
4107;DHT22;21906;50.812;7.132;2023-09-07T07:45:22;21.10;66.70
4107;DHT22;21906;50.812;7.132;2023-09-07T07:47:49;21.00;66.10
4107;DHT22;21906;50.812;7.132;2023-09-07T07:50:15;21.20;66.20
4107;DHT22;21906;50.812;7.132;2023-09-07T07:52:41;21.30;66.30
4107;DHT22;21906;50.812;7.132;2023-09-07T07:55:08;21.40;66.20
4107;DHT22;21906;50.812;7.132;2023-09-07T07:57:33;21.40;65.30
4107;DHT22;21906;50.812;7.132;2023-09-07T07:59:59;21.50;65.60
4107;DHT22;21906;50.812;7.132;2023-09-07T08:02:25;21.50;65.20
4107;DHT22;21906;50.812;7.132;2023-09-07T08:04:51;21.70;65.30
4107;DHT22;21906;50.812;7.132;2023-09-07T08:07:17;21.70;65.40
4107;DHT22;21906;50.812;7.132;2023-09-07T08:09:42;21.80;64.80
4107;DHT22;21906;50.812;7.132;2023-09-07T08:12:08;21.80;64.50
4107;DHT22;21906;50.812;7.132;2023-09-07T08:14:35;21.80;64.20
4107;DHT22;21906;50.812;7.132;2023-09-07T08:17:01;21.90;64.40
4107;DHT22;21906;50.812;7.132;2023-09-07T08:19:27;22.00;64.40
4107;DHT22;21906;50.812;7.132;2023-09-07T08:21:57;22.20;64.40
4107;DHT22;21906;50.812;7.132;2023-09-07T08:24:24;22.30;63.20
4107;DHT22;21906;50.812;7.132;2023-09-07T08:26:50;22.30;64.50
4107;DHT22;21906;50.812;7.132;2023-09-07T08:29:16;22.30;64.50
4107;DHT22;21906;50.812;7.132;2023-09-07T08:31:42;22.40;64.80
4107;DHT22;21906;50.812;7.132;2023-09-07T08:34:11;22.40;63.90
4107;DHT22;21906;50.812;7.132;2023-09-07T08:36:37;22.40;62.80
4107;DHT22;21906;50.812;7.132;2023-09-07T08:39:07;22.40;63.50
4107;DHT22;21906;50.812;7.132;2023-09-07T08:41:41;22.60;64.90
4107;DHT22;21906;50.812;7.132;2023-09-07T08:44:15;22.60;64.90
4107;DHT22;21906;50.812;7.132;2023-09-07T08:46:41;22.70;65.40
4107;DHT22;21906;50.812;7.132;2023-09-07T08:49:08;22.70;65.30
4107;DHT22;21906;50.812;7.132;2023-09-07T08:51:34;22.90;65.00
4107;DHT22;21906;50.812;7.132;2023-09-07T08:54:03;22.90;64.20
4107;DHT22;21906;50.812;7.132;2023-09-07T08:56:30;23.00;64.20
4107;DHT22;21906;50.812;7.132;2023-09-07T08:58:56;23.10;64.40
4107;DHT22;21906;50.812;7.132;2023-09-07T09:01:22;23.10;64.40
4107;DHT22;21906;50.812;7.132;2023-09-07T09:03:48;23.20;63.90
4107;DHT22;21906;50.812;7.132;2023-09-07T09:06:19;23.30;65.30
4107;DHT22;21906;50.812;7.132;2023-09-07T09:08:55;23.20;63.90
4107;DHT22;21906;50.812;7.132;2023-09-07T09:11:22;23.30;63.70
4107;DHT22;21906;50.812;7.132;2023-09-07T09:13:50;23.40;63.80
4107;DHT22;21906;50.812;7.132;2023-09-07T09:16:16;23.50;63.70
4107;DHT22;21906;50.812;7.132;2023-09-07T09:18:51;23.60;63.80
4107;DHT22;21906;50.812;7.132;2023-09-07T09:21:25;23.60;64.20
4107;DHT22;21906;50.812;7.132;2023-09-07T09:23:55;23.70;63.30
4107;DHT22;21906;50.812;7.132;2023-09-07T09:26:21;23.70;64.20
4107;DHT22;21906;50.812;7.132;2023-09-07T09:28:49;23.90;64.30
4107;DHT22;21906;50.812;7.132;2023-09-07T09:31:17;23.90;64.20
4107;DHT22;21906;50.812;7.132;2023-09-07T09:33:47;24.00;64.70
4107;DHT22;21906;50.812;7.132;2023-09-07T09:36:12;24.10;64.90
4107;DHT22;21906;50.812;7.132;2023-09-07T09:38:39;24.20;63.20
4107;DHT22;21906;50.812;7.132;2023-09-07T09:41:06;24.30;63.80
4107;DHT22;21906;50.812;7.132;2023-09-07T09:43:34;24.40;63.40
4107;DHT22;21906;50.812;7.132;2023-09-07T09:46:00;24.40;62.40
4107;DHT22;21906;50.812;7.132;2023-09-07T09:48:27;24.50;61.80
4107;DHT22;21906;50.812;7.132;2023-09-07T09:50:53;24.60;61.70
4107;DHT22;21906;50.812;7.132;2023-09-07T09:53:19;24.70;63.60
4107;DHT22;21906;50.812;7.132;2023-09-07T09:55:50;24.60;62.40
4107;DHT22;21906;50.812;7.132;2023-09-07T09:58:18;24.70;63.10
4107;DHT22;21906;50.812;7.132;2023-09-07T10:00:46;24.80;62.60
4107;DHT22;21906;50.812;7.132;2023-09-07T10:03:26;24.90;61.60
4107;DHT22;21906;50.812;7.132;2023-09-07T10:05:53;24.90;61.70
4107;DHT22;21906;50.812;7.132;2023-09-07T10:08:20;25.00;63.40
4107;DHT22;21906;50.812;7.132;2023-09-07T10:10:49;25.20;63.50
4107;DHT22;21906;50.812;7.132;2023-09-07T10:13:15;25.30;61.80
4107;DHT22;21906;50.812;7.132;2023-09-07T10:15:42;25.40;61.50
4107;DHT22;21906;50.812;7.132;2023-09-07T10:18:12;25.40;61.30
4107;DHT22;21906;50.812;7.132;2023-09-07T10:23:16;25.70;60.80
4107;DHT22;21906;50.812;7.132;2023-09-07T10:25:41;25.80;59.50
4107;DHT22;21906;50.812;7.132;2023-09-07T10:28:24;25.80;59.70
4107;DHT22;21906;50.812;7.132;2023-09-07T10:33:25;25.90;60.30
4107;DHT22;21906;50.812;7.132;2023-09-07T10:35:51;26.00;61.30
4107;DHT22;21906;50.812;7.132;2023-09-07T10:38:17;26.10;59.60
4107;DHT22;21906;50.812;7.132;2023-09-07T10:40:48;26.20;59.10
4107;DHT22;21906;50.812;7.132;2023-09-07T10:43:19;26.30;58.50
4107;DHT22;21906;50.812;7.132;2023-09-07T10:45:45;26.40;59.40
4107;DHT22;21906;50.812;7.132;2023-09-07T10:48:12;26.40;59.00
4107;DHT22;21906;50.812;7.132;2023-09-07T10:50:45;26.50;60.50
4107;DHT22;21906;50.812;7.132;2023-09-07T10:53:14;26.60;58.70
4107;DHT22;21906;50.812;7.132;2023-09-07T10:55:41;26.70;56.50
4107;DHT22;21906;50.812;7.132;2023-09-07T10:58:09;26.70;56.00
4107;DHT22;21906;50.812;7.132;2023-09-07T11:00:37;26.90;55.20
4107;DHT22;21906;50.812;7.132;2023-09-07T11:03:07;26.90;54.80
4107;DHT22;21906;50.812;7.132;2023-09-07T11:05:35;26.90;56.00
4107;DHT22;21906;50.812;7.132;2023-09-07T11:08:06;27.10;56.10
4107;DHT22;21906;50.812;7.132;2023-09-07T11:10:33;27.20;54.30
4107;DHT22;21906;50.812;7.132;2023-09-07T11:13:03;27.30;54.90
4107;DHT22;21906;50.812;7.132;2023-09-07T11:15:30;27.40;53.80
4107;DHT22;21906;50.812;7.132;2023-09-07T11:17:56;27.40;54.60
4107;DHT22;21906;50.812;7.132;2023-09-07T11:20:23;27.40;53.40
4107;DHT22;21906;50.812;7.132;2023-09-07T11:22:50;27.50;53.50
4107;DHT22;21906;50.812;7.132;2023-09-07T11:25:16;27.60;53.10
4107;DHT22;21906;50.812;7.132;2023-09-07T11:27:42;27.80;53.00
4107;DHT22;21906;50.812;7.132;2023-09-07T11:30:10;27.80;54.50
4107;DHT22;21906;50.812;7.132;2023-09-07T11:32:36;27.80;54.10
4107;DHT22;21906;50.812;7.132;2023-09-07T11:35:04;27.90;54.40
4107;DHT22;21906;50.812;7.132;2023-09-07T11:37:33;28.00;53.90
4107;DHT22;21906;50.812;7.132;2023-09-07T11:40:00;28.00;53.60
4107;DHT22;21906;50.812;7.132;2023-09-07T11:42:26;28.10;53.90
4107;DHT22;21906;50.812;7.132;2023-09-07T11:44:52;28.20;55.60
4107;DHT22;21906;50.812;7.132;2023-09-07T11:47:17;28.20;55.70
4107;DHT22;21906;50.812;7.132;2023-09-07T11:49:43;28.30;53.90
4107;DHT22;21906;50.812;7.132;2023-09-07T11:52:09;28.40;53.90
4107;DHT22;21906;50.812;7.132;2023-09-07T11:54:35;28.40;53.40
4107;DHT22;21906;50.812;7.132;2023-09-07T11:57:01;28.50;53.60
4107;DHT22;21906;50.812;7.132;2023-09-07T11:59:26;28.60;52.00
4107;DHT22;21906;50.812;7.132;2023-09-07T12:01:53;28.60;51.90
4107;DHT22;21906;50.812;7.132;2023-09-07T12:04:19;28.70;52.00
4107;DHT22;21906;50.812;7.132;2023-09-07T12:06:45;28.80;50.60
4107;DHT22;21906;50.812;7.132;2023-09-07T12:09:11;28.80;54.20
4107;DHT22;21906;50.812;7.132;2023-09-07T12:11:36;28.90;52.00
4107;DHT22;21906;50.812;7.132;2023-09-07T12:14:02;29.00;49.00
4107;DHT22;21906;50.812;7.132;2023-09-07T12:16:29;29.10;49.70
4107;DHT22;21906;50.812;7.132;2023-09-07T12:18:55;29.20;50.40
4107;DHT22;21906;50.812;7.132;2023-09-07T12:21:21;29.40;49.50
4107;DHT22;21906;50.812;7.132;2023-09-07T12:23:46;29.50;51.30
4107;DHT22;21906;50.812;7.132;2023-09-07T12:26:13;29.50;49.70
4107;DHT22;21906;50.812;7.132;2023-09-07T12:28:47;29.50;48.60
4107;DHT22;21906;50.812;7.132;2023-09-07T12:31:12;29.70;48.50
4107;DHT22;21906;50.812;7.132;2023-09-07T12:33:39;29.80;48.40
4107;DHT22;21906;50.812;7.132;2023-09-07T12:36:05;29.90;48.10
4107;DHT22;21906;50.812;7.132;2023-09-07T12:38:34;30.00;47.90
4107;DHT22;21906;50.812;7.132;2023-09-07T12:41:00;30.10;48.50
4107;DHT22;21906;50.812;7.132;2023-09-07T12:43:26;30.10;46.50
4107;DHT22;21906;50.812;7.132;2023-09-07T12:45:52;30.30;46.50
4107;DHT22;21906;50.812;7.132;2023-09-07T12:48:19;30.30;45.30
4107;DHT22;21906;50.812;7.132;2023-09-07T12:50:44;30.40;45.10
4107;DHT22;21906;50.812;7.132;2023-09-07T12:53:10;30.30;44.80
4107;DHT22;21906;50.812;7.132;2023-09-07T12:55:36;30.40;46.00
4107;DHT22;21906;50.812;7.132;2023-09-07T12:58:01;30.40;45.60
4107;DHT22;21906;50.812;7.132;2023-09-07T13:00:27;30.40;47.20
4107;DHT22;21906;50.812;7.132;2023-09-07T13:02:54;30.30;45.10
4107;DHT22;21906;50.812;7.132;2023-09-07T13:05:21;30.40;45.60
4107;DHT22;21906;50.812;7.132;2023-09-07T13:07:47;30.40;46.10
4107;DHT22;21906;50.812;7.132;2023-09-07T13:10:13;30.50;45.70
4107;DHT22;21906;50.812;7.132;2023-09-07T13:12:40;30.70;45.10
4107;DHT22;21906;50.812;7.132;2023-09-07T13:15:07;30.80;46.70
4107;DHT22;21906;50.812;7.132;2023-09-07T13:17:33;30.90;44.70
4107;DHT22;21906;50.812;7.132;2023-09-07T13:19:59;30.90;43.70
4107;DHT22;21906;50.812;7.132;2023-09-07T13:22:24;31.10;44.20
4107;DHT22;21906;50.812;7.132;2023-09-07T13:24:50;31.20;45.10
4107;DHT22;21906;50.812;7.132;2023-09-07T13:27:16;31.40;43.10
4107;DHT22;21906;50.812;7.132;2023-09-07T13:29:42;31.50;41.90
4107;DHT22;21906;50.812;7.132;2023-09-07T13:32:08;31.70;41.50
4107;DHT22;21906;50.812;7.132;2023-09-07T13:34:34;31.90;42.30
4107;DHT22;21906;50.812;7.132;2023-09-07T13:36:59;32.00;42.50
4107;DHT22;21906;50.812;7.132;2023-09-07T13:39:25;32.20;39.80
4107;DHT22;21906;50.812;7.132;2023-09-07T13:41:51;32.20;40.40
4107;DHT22;21906;50.812;7.132;2023-09-07T13:44:17;32.30;40.10
4107;DHT22;21906;50.812;7.132;2023-09-07T13:46:44;32.30;41.00
4107;DHT22;21906;50.812;7.132;2023-09-07T13:49:10;32.40;41.80
4107;DHT22;21906;50.812;7.132;2023-09-07T13:51:36;32.50;40.50
4107;DHT22;21906;50.812;7.132;2023-09-07T13:54:06;32.50;39.50
4107;DHT22;21906;50.812;7.132;2023-09-07T13:56:32;32.50;40.70
4107;DHT22;21906;50.812;7.132;2023-09-07T13:58:58;32.60;40.00
4107;DHT22;21906;50.812;7.132;2023-09-07T14:01:24;32.80;39.20
4107;DHT22;21906;50.812;7.132;2023-09-07T14:03:50;32.90;38.40
4107;DHT22;21906;50.812;7.132;2023-09-07T14:06:16;32.90;38.80
4107;DHT22;21906;50.812;7.132;2023-09-07T14:08:43;32.90;39.50
4107;DHT22;21906;50.812;7.132;2023-09-07T14:11:09;33.00;38.80
4107;DHT22;21906;50.812;7.132;2023-09-07T14:13:35;33.20;39.00
4107;DHT22;21906;50.812;7.132;2023-09-07T14:16:01;33.40;38.70
4107;DHT22;21906;50.812;7.132;2023-09-07T14:18:28;33.60;37.80
4107;DHT22;21906;50.812;7.132;2023-09-07T14:20:53;33.70;37.10
4107;DHT22;21906;50.812;7.132;2023-09-07T14:23:23;33.80;36.80
4107;DHT22;21906;50.812;7.132;2023-09-07T14:25:51;33.90;36.90
4107;DHT22;21906;50.812;7.132;2023-09-07T14:28:17;34.10;37.10
4107;DHT22;21906;50.812;7.132;2023-09-07T14:30:43;34.20;36.10
4107;DHT22;21906;50.812;7.132;2023-09-07T14:33:09;34.30;35.90
4107;DHT22;21906;50.812;7.132;2023-09-07T14:35:35;34.50;35.40
4107;DHT22;21906;50.812;7.132;2023-09-07T14:38:01;34.80;35.30
4107;DHT22;21906;50.812;7.132;2023-09-07T14:40:27;34.90;34.90
4107;DHT22;21906;50.812;7.132;2023-09-07T14:42:53;35.00;35.30
4107;DHT22;21906;50.812;7.132;2023-09-07T14:45:27;35.30;35.00
4107;DHT22;21906;50.812;7.132;2023-09-07T14:47:53;35.40;34.80
4107;DHT22;21906;50.812;7.132;2023-09-07T14:50:19;35.50;34.80
4107;DHT22;21906;50.812;7.132;2023-09-07T14:52:45;35.60;34.50
4107;DHT22;21906;50.812;7.132;2023-09-07T14:55:15;35.80;32.50
4107;DHT22;21906;50.812;7.132;2023-09-07T14:57:41;36.00;32.30
4107;DHT22;21906;50.812;7.132;2023-09-07T15:00:09;36.20;33.00
4107;DHT22;21906;50.812;7.132;2023-09-07T15:02:35;36.20;31.60
4107;DHT22;21906;50.812;7.132;2023-09-07T15:05:01;36.30;32.10
4107;DHT22;21906;50.812;7.132;2023-09-07T15:07:26;36.50;32.30
4107;DHT22;21906;50.812;7.132;2023-09-07T15:09:52;36.80;31.70
4107;DHT22;21906;50.812;7.132;2023-09-07T15:12:19;37.00;31.20
4107;DHT22;21906;50.812;7.132;2023-09-07T15:14:44;37.20;29.20
4107;DHT22;21906;50.812;7.132;2023-09-07T15:17:11;37.40;29.40
4107;DHT22;21906;50.812;7.132;2023-09-07T15:19:39;37.30;28.70
4107;DHT22;21906;50.812;7.132;2023-09-07T15:22:05;37.40;28.90
4107;DHT22;21906;50.812;7.132;2023-09-07T15:24:31;37.80;30.00
4107;DHT22;21906;50.812;7.132;2023-09-07T15:26:56;37.90;29.90
4107;DHT22;21906;50.812;7.132;2023-09-07T15:29:22;38.10;29.00
4107;DHT22;21906;50.812;7.132;2023-09-07T15:31:48;38.60;28.80
4107;DHT22;21906;50.812;7.132;2023-09-07T15:34:15;38.60;28.60
4107;DHT22;21906;50.812;7.132;2023-09-07T15:36:41;38.80;28.60
4107;DHT22;21906;50.812;7.132;2023-09-07T15:39:08;39.00;28.00
4107;DHT22;21906;50.812;7.132;2023-09-07T15:41:33;39.50;27.60
4107;DHT22;21906;50.812;7.132;2023-09-07T15:43:59;39.80;28.20
4107;DHT22;21906;50.812;7.132;2023-09-07T15:46:25;39.90;26.40
4107;DHT22;21906;50.812;7.132;2023-09-07T15:48:52;40.10;26.90